createdAt,value
2018-06-09T00:00:39.301Z,0.00
2018-06-09T00:01:39.209Z,0.00
2018-06-09T00:02:39.138Z,0.00
2018-06-09T00:03:39.015Z,0.00
2018-06-09T00:04:38.925Z,0.00
2018-06-09T00:05:38.833Z,0.00
2018-06-09T00:06:38.743Z,0.00
2018-06-09T00:07:38.652Z,0.00
2018-06-09T00:08:38.562Z,0.00
2018-06-09T00:09:38.470Z,0.00
2018-06-09T00:10:38.369Z,0.00
2018-06-09T00:11:38.277Z,0.00
2018-06-09T00:12:38.185Z,0.00
2018-06-09T00:13:38.097Z,0.00
2018-06-09T00:14:38.004Z,0.00
2018-06-09T00:15:37.914Z,0.00
2018-06-09T00:16:37.821Z,0.00
2018-06-09T00:17:37.732Z,0.00
2018-06-09T00:18:37.641Z,0.00
2018-06-09T00:19:37.587Z,0.00
2018-06-09T00:20:37.447Z,0.00
2018-06-09T00:21:37.355Z,0.00
2018-06-09T00:22:37.265Z,0.00
2018-06-09T00:23:37.174Z,0.00
2018-06-09T00:24:37.083Z,0.00
2018-06-09T00:25:36.983Z,0.00
2018-06-09T00:26:36.903Z,0.00
2018-06-09T00:27:36.798Z,0.00
2018-06-09T00:28:36.708Z,0.00
2018-06-09T00:29:36.617Z,0.00
2018-06-09T00:30:36.526Z,0.00
2018-06-09T00:31:36.436Z,0.00
2018-06-09T00:32:36.357Z,0.00
2018-06-09T00:33:36.254Z,0.00
2018-06-09T00:34:36.162Z,0.00
2018-06-09T00:35:36.059Z,0.00
2018-06-09T00:36:35.974Z,0.00
2018-06-09T00:37:35.877Z,0.00
2018-06-09T00:38:35.788Z,0.00
2018-06-09T00:39:35.696Z,0.00
2018-06-09T00:40:35.607Z,0.00
2018-06-09T00:41:35.764Z,0.00
2018-06-09T00:42:35.413Z,0.00
2018-06-09T00:43:35.321Z,0.00
2018-06-09T00:44:35.230Z,0.00
2018-06-09T00:45:35.138Z,0.00
2018-06-09T00:46:35.048Z,0.00
2018-06-09T00:47:34.957Z,0.00
2018-06-09T00:48:34.866Z,0.00
2018-06-09T00:49:34.765Z,0.00
2018-06-09T00:50:34.673Z,0.00
2018-06-09T00:51:34.581Z,0.00
2018-06-09T00:52:34.491Z,0.00
2018-06-09T00:53:34.400Z,0.00
2018-06-09T00:54:34.314Z,0.00
2018-06-09T00:55:34.217Z,0.00
2018-06-09T00:56:34.128Z,0.00
2018-06-09T00:57:34.025Z,0.00
2018-06-09T00:58:33.947Z,0.00
2018-06-09T00:59:33.843Z,0.00
2018-06-09T01:00:33.752Z,0.00
2018-06-09T01:01:33.661Z,0.00
2018-06-09T01:02:33.570Z,0.00
2018-06-09T01:03:33.468Z,0.00
2018-06-09T01:04:33.376Z,0.00
2018-06-09T01:05:33.285Z,0.00
2018-06-09T01:06:33.195Z,0.00
2018-06-09T01:07:33.103Z,0.00
2018-06-09T01:08:33.014Z,0.00
2018-06-09T01:09:32.921Z,0.00
2018-06-09T01:10:32.820Z,0.00
2018-06-09T01:11:32.728Z,0.00
2018-06-09T01:12:32.636Z,0.00
2018-06-09T01:13:32.547Z,0.00
2018-06-09T01:14:32.458Z,0.00
2018-06-09T01:15:32.368Z,0.00
2018-06-09T01:16:32.277Z,0.00
2018-06-09T01:17:32.171Z,0.00
2018-06-09T01:18:32.081Z,0.00
2018-06-09T01:19:31.989Z,0.00
2018-06-09T01:20:31.898Z,0.00
2018-06-09T01:21:31.810Z,0.00
2018-06-09T01:22:31.717Z,0.00
2018-06-09T01:23:31.615Z,0.00
2018-06-09T01:24:31.535Z,0.00
2018-06-09T01:25:31.432Z,0.00
2018-06-09T01:26:31.340Z,0.00
2018-06-09T01:27:31.250Z,0.00
2018-06-09T01:28:31.159Z,0.00
2018-06-09T01:29:31.068Z,0.00
2018-06-09T01:30:30.967Z,0.00
2018-06-09T01:31:30.874Z,0.00
2018-06-09T01:32:30.785Z,0.00
2018-06-09T01:33:30.692Z,0.00
2018-06-09T01:34:30.605Z,0.00
2018-06-09T01:35:30.510Z,0.00
2018-06-09T01:36:30.407Z,0.00
2018-06-09T01:37:30.317Z,0.00
2018-06-09T01:38:30.224Z,0.00
2018-06-09T01:39:30.135Z,0.00
2018-06-09T01:40:30.044Z,0.00
2018-06-09T01:41:29.953Z,0.00
2018-06-09T01:42:29.850Z,0.00
2018-06-09T01:43:29.758Z,0.00
2018-06-09T01:44:29.687Z,0.00
2018-06-09T01:45:29.577Z,0.00
2018-06-09T01:46:29.739Z,0.00
2018-06-09T01:47:29.395Z,0.00
2018-06-09T01:48:29.292Z,0.00
2018-06-09T01:49:29.201Z,0.00
2018-06-09T01:50:29.109Z,0.00
2018-06-09T01:51:29.019Z,0.00
2018-06-09T01:52:28.927Z,0.00
2018-06-09T01:53:28.837Z,0.00
2018-06-09T01:54:28.734Z,0.00
2018-06-09T01:55:28.642Z,0.00
2018-06-09T01:56:28.552Z,0.00
2018-06-09T01:57:28.460Z,0.00
2018-06-09T01:58:28.370Z,4.00
2018-06-09T01:59:28.280Z,4.00
2018-06-09T02:00:28.178Z,4.00
2018-06-09T02:01:28.088Z,0.00
2018-06-09T02:02:27.994Z,0.00
2018-06-09T02:03:27.904Z,4.00
2018-06-09T02:04:27.812Z,4.00
2018-06-09T02:05:27.710Z,4.00
2018-06-09T02:06:27.870Z,4.00
2018-06-09T02:07:27.527Z,4.00
2018-06-09T02:08:27.439Z,4.00
2018-06-09T02:09:27.346Z,4.00
2018-06-09T02:10:27.256Z,4.00
2018-06-09T02:11:27.152Z,8.00
2018-06-09T02:12:27.062Z,8.00
2018-06-09T02:13:26.971Z,8.00
2018-06-09T02:14:26.879Z,12.00
2018-06-09T02:15:26.790Z,12.00
2018-06-09T02:16:26.691Z,8.00
2018-06-09T02:17:26.595Z,12.00
2018-06-09T02:18:26.505Z,16.00
2018-06-09T02:19:26.436Z,16.00
2018-06-09T02:20:26.323Z,20.00
2018-06-09T02:21:26.236Z,20.00
2018-06-09T02:22:26.128Z,24.00
2018-06-09T02:23:26.038Z,28.00
2018-06-09T02:24:25.947Z,32.00
2018-06-09T02:25:25.856Z,32.00
2018-06-09T02:26:26.071Z,36.00
2018-06-09T02:27:25.662Z,40.00
2018-06-09T02:28:25.572Z,44.00
2018-06-09T02:29:25.480Z,48.00
2018-06-09T02:30:25.390Z,56.00
2018-06-09T02:31:25.298Z,60.00
2018-06-09T02:32:25.197Z,68.00
2018-06-09T02:33:25.105Z,72.00
2018-06-09T02:34:25.013Z,76.00
2018-06-09T02:35:24.924Z,80.00
2018-06-09T02:36:24.832Z,88.00
2018-06-09T02:37:24.730Z,92.00
2018-06-09T02:38:24.638Z,100.00
2018-06-09T02:39:24.547Z,108.00
2018-06-09T02:40:24.457Z,116.00
2018-06-09T02:41:24.365Z,120.00
2018-06-09T02:42:24.275Z,128.00
2018-06-09T02:43:24.172Z,136.00
2018-06-09T02:44:24.081Z,148.00
2018-06-09T02:45:23.991Z,152.00
2018-06-09T02:46:23.901Z,164.00
2018-06-09T02:47:23.797Z,176.00
2018-06-09T02:48:23.705Z,184.00
2018-06-09T02:49:23.614Z,196.00
2018-06-09T02:50:23.524Z,208.00
2018-06-09T02:51:23.433Z,220.00
2018-06-09T02:52:23.342Z,236.00
2018-06-09T02:53:23.241Z,248.00
2018-06-09T02:54:23.147Z,268.00
2018-06-09T02:55:23.057Z,280.00
2018-06-09T02:56:22.966Z,296.00
2018-06-09T02:57:22.876Z,316.00
2018-06-09T02:58:22.773Z,324.00
2018-06-09T02:59:22.681Z,348.00
2018-06-09T03:00:22.591Z,364.00
2018-06-09T03:01:22.513Z,388.00
2018-06-09T03:02:22.410Z,408.00
2018-06-09T03:03:22.306Z,440.00
2018-06-09T03:04:22.215Z,468.00
2018-06-09T03:05:22.125Z,496.00
2018-06-09T03:06:22.033Z,524.00
2018-06-09T03:07:21.934Z,556.00
2018-06-09T03:08:21.840Z,588.00
2018-06-09T03:09:21.748Z,620.00
2018-06-09T03:10:21.658Z,652.00
2018-06-09T03:11:21.817Z,680.00
2018-06-09T03:12:21.465Z,708.00
2018-06-09T03:13:21.373Z,728.00
2018-06-09T03:14:21.282Z,748.00
2018-06-09T03:15:21.192Z,776.00
2018-06-09T03:16:21.100Z,800.00
2018-06-09T03:17:20.998Z,828.00
2018-06-09T03:18:20.906Z,856.00
2018-06-09T03:19:20.818Z,892.00
2018-06-09T03:20:20.725Z,928.00
2018-06-09T03:21:20.883Z,960.00
2018-06-09T03:22:20.543Z,996.00
2018-06-09T03:23:20.439Z,1032.00
2018-06-09T03:24:20.348Z,1068.00
2018-06-09T03:25:20.259Z,1112.00
2018-06-09T03:26:20.166Z,1156.00
2018-06-09T03:27:20.080Z,1212.00
2018-06-09T03:28:19.977Z,1272.00
2018-06-09T03:29:19.882Z,1348.00
2018-06-09T03:30:19.792Z,1416.00
2018-06-09T03:31:19.700Z,1484.00
2018-06-09T03:32:19.610Z,1548.00
2018-06-09T03:33:19.507Z,1600.00
2018-06-09T03:34:19.415Z,1640.00
2018-06-09T03:35:19.325Z,1676.00
2018-06-09T03:36:19.234Z,1704.00
2018-06-09T03:37:19.144Z,1724.00
2018-06-09T03:38:19.052Z,1732.00
2018-06-09T03:39:18.949Z,1732.00
2018-06-09T03:40:18.863Z,1728.00
2018-06-09T03:41:18.767Z,1728.00
2018-06-09T03:42:18.677Z,1728.00
2018-06-09T03:43:18.658Z,1732.00
2018-06-09T03:44:18.483Z,1740.00
2018-06-09T03:45:18.393Z,1768.00
2018-06-09T03:46:18.300Z,1808.00
2018-06-09T03:47:18.210Z,1844.00
2018-06-09T03:48:18.119Z,1888.00
2018-06-09T03:49:18.017Z,1940.00
2018-06-09T03:50:17.926Z,1976.00
2018-06-09T03:51:17.837Z,2028.00
2018-06-09T03:52:17.744Z,2108.00
2018-06-09T03:53:17.653Z,2200.00
2018-06-09T03:54:17.564Z,2340.00
2018-06-09T03:55:17.471Z,2424.00
2018-06-09T03:56:17.367Z,2488.00
2018-06-09T03:57:17.277Z,2548.00
2018-06-09T03:58:17.185Z,2704.00
2018-06-09T03:59:17.098Z,2812.00
2018-06-09T04:00:17.004Z,2804.00
2018-06-09T04:01:17.214Z,2764.00
2018-06-09T04:02:16.822Z,2696.00
2018-06-09T04:03:16.719Z,2672.00
2018-06-09T04:04:16.630Z,2736.00
2018-06-09T04:05:16.537Z,2708.00
2018-06-09T04:06:16.447Z,2680.00
2018-06-09T04:07:16.355Z,2700.00
2018-06-09T04:08:16.266Z,2720.00
2018-06-09T04:09:16.178Z,2732.00
2018-06-09T04:10:16.078Z,2776.00
2018-06-09T04:11:16.242Z,2832.00
2018-06-09T04:12:15.903Z,2912.00
2018-06-09T04:13:15.800Z,3024.00
2018-06-09T04:14:15.708Z,3136.00
2018-06-09T04:15:15.618Z,3220.00
2018-06-09T04:16:15.526Z,3292.00
2018-06-09T04:17:15.437Z,3348.00
2018-06-09T04:18:15.344Z,3440.00
2018-06-09T04:19:15.254Z,3564.00
2018-06-09T04:20:15.162Z,3656.00
2018-06-09T04:21:15.074Z,3708.00
2018-06-09T04:22:14.983Z,3828.00
2018-06-09T04:23:14.892Z,4052.00
2018-06-09T04:24:14.799Z,4208.00
2018-06-09T04:25:14.698Z,4296.00
2018-06-09T04:26:14.907Z,4376.00
2018-06-09T04:27:14.517Z,4384.00
2018-06-09T04:28:14.426Z,4324.00
2018-06-09T04:29:14.333Z,4372.00
2018-06-09T04:30:14.243Z,4432.00
2018-06-09T04:31:14.152Z,4524.00
2018-06-09T04:32:14.062Z,4648.00
2018-06-09T04:33:13.970Z,4800.00
2018-06-09T04:34:13.883Z,4908.00
2018-06-09T04:35:13.788Z,5004.00
2018-06-09T04:36:13.998Z,4980.00
2018-06-09T04:37:13.607Z,5236.00
2018-06-09T04:38:13.522Z,5440.00
2018-06-09T04:39:13.426Z,5616.00
2018-06-09T04:40:13.335Z,5816.00
2018-06-09T04:41:13.244Z,5988.00
2018-06-09T04:42:13.154Z,6040.00
2018-06-09T04:43:13.063Z,6080.00
2018-06-09T04:44:12.972Z,6124.00
2018-06-09T04:45:12.880Z,6164.00
2018-06-09T04:46:12.791Z,6208.00
2018-06-09T04:47:12.699Z,6248.00
2018-06-09T04:48:12.609Z,6292.00
2018-06-09T04:49:12.520Z,6308.00
2018-06-09T04:50:12.439Z,6356.00
2018-06-09T04:51:12.350Z,6392.00
2018-06-09T04:52:12.285Z,6480.00
2018-06-09T04:53:12.167Z,6536.00
2018-06-09T04:54:12.077Z,6612.00
2018-06-09T04:55:11.986Z,6600.00
2018-06-09T04:56:11.894Z,6688.00
2018-06-09T04:57:11.804Z,6740.00
2018-06-09T04:58:11.726Z,6800.00
2018-06-09T04:59:11.637Z,6844.00
2018-06-09T05:00:11.545Z,6880.00
2018-06-09T05:01:11.453Z,6916.00
2018-06-09T05:02:11.363Z,6936.00
2018-06-09T05:03:11.272Z,6948.00
2018-06-09T05:04:11.193Z,6928.00
2018-06-09T05:05:11.102Z,6948.00
2018-06-09T05:06:11.011Z,7108.00
2018-06-09T05:07:10.929Z,7172.00
2018-06-09T05:08:10.855Z,7232.00
2018-06-09T05:09:10.751Z,7044.00
2018-06-09T05:10:10.667Z,7336.00
2018-06-09T05:11:10.570Z,7384.00
2018-06-09T05:12:10.494Z,7428.00
2018-06-09T05:13:10.402Z,7460.00
2018-06-09T05:14:10.310Z,7476.00
2018-06-09T05:15:10.220Z,6820.00
2018-06-09T05:16:10.141Z,7596.00
2018-06-09T05:17:10.050Z,7660.00
2018-06-09T05:18:09.960Z,7688.00
2018-06-09T05:19:09.869Z,7748.00
2018-06-09T05:20:09.790Z,7836.00
2018-06-09T05:21:10.000Z,7928.00
2018-06-09T05:22:09.609Z,7980.00
2018-06-09T05:23:09.522Z,7988.00
2018-06-09T05:24:09.441Z,8020.00
2018-06-09T05:25:09.359Z,8080.00
2018-06-09T05:26:09.259Z,8108.00
2018-06-09T05:27:09.180Z,8120.00
2018-06-09T05:28:09.090Z,8172.00
2018-06-09T05:29:08.999Z,6860.00
2018-06-09T05:30:08.920Z,6988.00
2018-06-09T05:31:08.829Z,7868.00
2018-06-09T05:32:08.738Z,8524.00
2018-06-09T05:33:08.661Z,8580.00
2018-06-09T05:34:08.569Z,8668.00
2018-06-09T05:35:08.478Z,8712.00
2018-06-09T05:36:08.401Z,8760.00
2018-06-09T05:37:08.309Z,8812.00
2018-06-09T05:38:08.220Z,8812.00
2018-06-09T05:39:08.143Z,8772.00
2018-06-09T05:40:08.052Z,8768.00
2018-06-09T05:41:07.962Z,8788.00
2018-06-09T05:42:07.881Z,8776.00
2018-06-09T05:43:07.790Z,8812.00
2018-06-09T05:44:07.711Z,8880.00
2018-06-09T05:45:07.621Z,9012.00
2018-06-09T05:46:07.529Z,9120.00
2018-06-09T05:47:07.451Z,9172.00
2018-06-09T05:48:07.361Z,9224.00
2018-06-09T05:49:07.283Z,9328.00
2018-06-09T05:50:07.191Z,9368.00
2018-06-09T05:51:07.101Z,9364.00
2018-06-09T05:52:07.022Z,9396.00
2018-06-09T05:53:06.931Z,9456.00
2018-06-09T05:54:06.840Z,9360.00
2018-06-09T05:55:06.764Z,9340.00
2018-06-09T05:56:06.673Z,9372.00
2018-06-09T05:57:06.592Z,9440.00
2018-06-09T05:58:06.503Z,9472.00
2018-06-09T05:59:06.412Z,9472.00
2018-06-09T06:00:06.333Z,9556.00
2018-06-09T06:01:06.243Z,9756.00
2018-06-09T06:02:06.164Z,9908.00
2018-06-09T06:03:06.140Z,10204.00
2018-06-09T06:04:05.984Z,10368.00
2018-06-09T06:05:05.904Z,10368.00
2018-06-09T06:06:05.815Z,10364.00
2018-06-09T06:07:05.735Z,10616.00
2018-06-09T06:08:05.644Z,10916.00
2018-06-09T06:09:05.566Z,10960.00
2018-06-09T06:10:05.475Z,11208.00
2018-06-09T06:11:05.384Z,11828.00
2018-06-09T06:12:05.306Z,12568.00
2018-06-09T06:13:05.227Z,12460.00
2018-06-09T06:14:05.136Z,12248.00
2018-06-09T06:15:05.047Z,12572.00
2018-06-09T06:16:04.967Z,13572.00
2018-06-09T06:17:04.876Z,14040.00
2018-06-09T06:18:04.798Z,13568.00
2018-06-09T06:19:04.708Z,13392.00
2018-06-09T06:20:04.617Z,13924.00
2018-06-09T06:21:04.788Z,13868.00
2018-06-09T06:22:04.447Z,14144.00
2018-06-09T06:23:04.368Z,14872.00
2018-06-09T06:24:04.284Z,16012.00
2018-06-09T06:25:04.200Z,16416.00
2018-06-09T06:26:04.110Z,16928.00
2018-06-09T06:27:04.031Z,17664.00
2018-06-09T06:28:03.939Z,17344.00
2018-06-09T06:29:03.862Z,16384.00
2018-06-09T06:30:03.771Z,15552.00
2018-06-09T06:31:03.693Z,15292.00
2018-06-09T06:32:03.602Z,15256.00
2018-06-09T06:33:03.524Z,15660.00
2018-06-09T06:34:03.433Z,15460.00
2018-06-09T06:35:03.354Z,16076.00
2018-06-09T06:36:03.276Z,19744.00
2018-06-09T06:37:03.176Z,23840.00
2018-06-09T06:38:03.094Z,22400.00
2018-06-09T06:39:03.017Z,19104.00
2018-06-09T06:40:02.925Z,17984.00
2018-06-09T06:41:03.100Z,17248.00
2018-06-09T06:42:02.757Z,16544.00
2018-06-09T06:43:02.679Z,16864.00
2018-06-09T06:44:02.586Z,19872.00
2018-06-09T06:45:02.548Z,25376.00
2018-06-09T06:46:02.419Z,26144.00
2018-06-09T06:47:02.341Z,21728.00
2018-06-09T06:48:02.261Z,18176.00
2018-06-09T06:49:02.171Z,18048.00
2018-06-09T06:50:02.092Z,18976.00
2018-06-09T06:51:02.002Z,21376.00
2018-06-09T06:52:01.924Z,23936.00
2018-06-09T06:53:01.845Z,22112.00
2018-06-09T06:54:01.754Z,19008.00
2018-06-09T06:55:01.675Z,18240.00
2018-06-09T06:56:01.586Z,18400.00
2018-06-09T06:57:01.510Z,18400.00
2018-06-09T06:58:01.429Z,18720.00
2018-06-09T06:59:01.340Z,18752.00
2018-06-09T07:00:01.272Z,18560.00
2018-06-09T07:01:01.186Z,18656.00
2018-06-09T07:02:01.120Z,18592.00
2018-06-09T07:03:01.012Z,18560.00
2018-06-09T07:04:00.935Z,18688.00
2018-06-09T07:05:00.855Z,18784.00
2018-06-09T07:06:00.778Z,18944.00
2018-06-09T07:07:00.687Z,18944.00
2018-06-09T07:08:00.630Z,18880.00
2018-06-09T07:09:00.542Z,18976.00
2018-06-09T07:10:00.451Z,18912.00
2018-06-09T07:11:00.372Z,19712.00
2018-06-09T07:12:00.294Z,20704.00
2018-06-09T07:13:00.204Z,21184.00
2018-06-09T07:14:00.126Z,21440.00
2018-06-09T07:15:00.051Z,21920.00
2018-06-09T07:15:59.969Z,22592.00
2018-06-09T07:16:59.897Z,23360.00
2018-06-09T07:17:59.811Z,24608.00
2018-06-09T07:18:59.720Z,25984.00
2018-06-09T07:19:59.643Z,27488.00
2018-06-09T07:20:59.565Z,29312.00
2018-06-09T07:21:59.489Z,32544.00
2018-06-09T07:22:59.411Z,39168.00
2018-06-09T07:23:59.329Z,48032.00
2018-06-09T07:24:59.239Z,56800.00
2018-06-09T07:25:59.161Z,64480.00
2018-06-09T07:26:59.082Z,67872.00
2018-06-09T07:27:59.004Z,68096.00
2018-06-09T07:28:58.927Z,64608.00
2018-06-09T07:29:58.854Z,62432.00
2018-06-09T07:30:58.757Z,65120.00
2018-06-09T07:31:58.692Z,70432.00
2018-06-09T07:32:58.600Z,77472.00
2018-06-09T07:33:58.521Z,82624.00
2018-06-09T07:34:58.443Z,86560.00
2018-06-09T07:35:58.366Z,90816.00
2018-06-09T07:36:58.286Z,95424.00
2018-06-09T07:37:58.196Z,104416.00
2018-06-09T07:38:58.117Z,108608.00
2018-06-09T07:39:58.043Z,116160.00
2018-06-09T07:40:57.964Z,125312.00
2018-06-09T07:41:57.882Z,141696.00
2018-06-09T07:42:57.805Z,154624.00
2018-06-09T07:43:57.726Z,162688.00
2018-06-09T07:44:57.636Z,162784.00
2018-06-09T07:45:57.556Z,152448.00
2018-06-09T07:46:57.479Z,138080.00
2018-06-09T07:47:57.417Z,120448.00
2018-06-09T07:48:57.334Z,110432.00
2018-06-09T07:49:57.243Z,105248.00
2018-06-09T07:50:57.168Z,94560.00
2018-06-09T07:51:57.086Z,89952.00
2018-06-09T07:52:56.996Z,86912.00
2018-06-09T07:53:56.925Z,81984.00
2018-06-09T07:54:56.839Z,73120.00
2018-06-09T07:55:56.762Z,67200.00
2018-06-09T07:56:56.683Z,62208.00
2018-06-09T07:57:56.610Z,59936.00
2018-06-09T07:58:56.526Z,58304.00
2018-06-09T07:59:56.437Z,56608.00
2018-06-09T08:00:56.357Z,53440.00
2018-06-09T08:01:56.282Z,51360.00
2018-06-09T08:02:56.201Z,49280.00
2018-06-09T08:03:56.122Z,48192.00
2018-06-09T08:04:56.051Z,46912.00
2018-06-09T08:05:55.967Z,44576.00
2018-06-09T08:06:55.945Z,42080.00
2018-06-09T08:07:55.801Z,41280.00
2018-06-09T08:08:55.718Z,41440.00
2018-06-09T08:09:55.640Z,39968.00
2018-06-09T08:10:55.562Z,37792.00
2018-06-09T08:11:55.483Z,37952.00
2018-06-09T08:12:55.408Z,35776.00
2018-06-09T08:13:55.329Z,26176.00
2018-06-09T08:14:55.234Z,16540.00
2018-06-09T08:15:55.157Z,11412.00
2018-06-09T08:16:55.079Z,10756.00
2018-06-09T08:17:55.000Z,10468.00
2018-06-09T08:18:54.912Z,10328.00
2018-06-09T08:19:54.831Z,10232.00
2018-06-09T08:20:54.754Z,10216.00
2018-06-09T08:21:54.662Z,10236.00
2018-06-09T08:22:54.583Z,10260.00
2018-06-09T08:23:54.519Z,10284.00
2018-06-09T08:24:54.415Z,10320.00
2018-06-09T08:25:54.337Z,10364.00
2018-06-09T08:26:54.245Z,10396.00
2018-06-09T08:27:54.168Z,10480.00
2018-06-09T08:28:54.076Z,10632.00
2018-06-09T08:29:54.000Z,10900.00
2018-06-09T08:30:53.907Z,11812.00
2018-06-09T08:31:53.829Z,17536.00
2018-06-09T08:32:53.738Z,31680.00
2018-06-09T08:33:53.661Z,46048.00
2018-06-09T08:34:53.568Z,53248.00
2018-06-09T08:35:53.490Z,54464.00
2018-06-09T08:36:53.400Z,53920.00
2018-06-09T08:37:53.324Z,53088.00
2018-06-09T08:38:53.231Z,53344.00
2018-06-09T08:39:53.153Z,54080.00
2018-06-09T08:40:53.063Z,54656.00
2018-06-09T08:41:52.983Z,55872.00
2018-06-09T08:42:52.892Z,55648.00
2018-06-09T08:43:52.817Z,56416.00
2018-06-09T08:44:52.724Z,57088.00
2018-06-09T08:45:52.646Z,57792.00
2018-06-09T08:46:52.566Z,58112.00
2018-06-09T08:47:52.475Z,58720.00
2018-06-09T08:48:52.410Z,59264.00
2018-06-09T08:49:52.319Z,60576.00
2018-06-09T08:50:52.229Z,63392.00
2018-06-09T08:51:52.151Z,66240.00
2018-06-09T08:52:52.072Z,66208.00
2018-06-09T08:53:51.981Z,63392.00
2018-06-09T08:54:51.904Z,60608.00
2018-06-09T08:55:51.824Z,60992.00
2018-06-09T08:56:51.779Z,63648.00
2018-06-09T08:57:51.667Z,66528.00
2018-06-09T08:58:51.577Z,71232.00
2018-06-09T08:59:51.499Z,74720.00
2018-06-09T09:00:51.421Z,76320.00
2018-06-09T09:01:51.343Z,76352.00
2018-06-09T09:02:51.264Z,74688.00
2018-06-09T09:03:51.173Z,70368.00
2018-06-09T09:04:51.094Z,66016.00
2018-06-09T09:05:51.017Z,62944.00
2018-06-09T09:06:50.937Z,60416.00
2018-06-09T09:07:50.859Z,57984.00
2018-06-09T09:08:50.781Z,57280.00
2018-06-09T09:09:50.706Z,56832.00
2018-06-09T09:10:50.613Z,56512.00
2018-06-09T09:11:50.537Z,56512.00
2018-06-09T09:12:50.455Z,56800.00
2018-06-09T09:13:50.378Z,56480.00
2018-06-09T09:14:50.300Z,57088.00
2018-06-09T09:15:50.221Z,57504.00
2018-06-09T09:16:50.147Z,57760.00
2018-06-09T09:17:50.066Z,58304.00
2018-06-09T09:18:49.973Z,58752.00
2018-06-09T09:19:49.895Z,59008.00
2018-06-09T09:20:50.066Z,58624.00
2018-06-09T09:21:49.738Z,59040.00
2018-06-09T09:22:49.661Z,59680.00
2018-06-09T09:23:49.594Z,59872.00
2018-06-09T09:24:49.503Z,60448.00
2018-06-09T09:25:49.462Z,59840.00
2018-06-09T09:26:49.349Z,59584.00
2018-06-09T09:27:49.271Z,59168.00
2018-06-09T09:28:49.189Z,59168.00
2018-06-09T09:29:49.100Z,58752.00
2018-06-09T09:30:49.021Z,59584.00
2018-06-09T09:31:48.943Z,58688.00
2018-06-09T09:32:48.865Z,58208.00
2018-06-09T09:33:48.797Z,58208.00
2018-06-09T09:34:48.708Z,58528.00
2018-06-09T09:35:48.633Z,59040.00
2018-06-09T09:36:48.552Z,59232.00
2018-06-09T09:37:48.474Z,59264.00
2018-06-09T09:38:48.395Z,58784.00
2018-06-09T09:39:48.317Z,57600.00
2018-06-09T09:40:48.240Z,57376.00
2018-06-09T09:41:48.160Z,56832.00
2018-06-09T09:42:48.082Z,56160.00
2018-06-09T09:43:48.004Z,55648.00
2018-06-09T09:44:47.926Z,55040.00
2018-06-09T09:45:47.847Z,54336.00
2018-06-09T09:46:47.768Z,53856.00
2018-06-09T09:47:47.690Z,53568.00
2018-06-09T09:48:47.612Z,53312.00
2018-06-09T09:49:47.535Z,52128.00
2018-06-09T09:50:47.455Z,50784.00
2018-06-09T09:51:47.377Z,50560.00
2018-06-09T09:52:47.324Z,50208.00
2018-06-09T09:53:47.222Z,49216.00
2018-06-09T09:54:47.146Z,47616.00
2018-06-09T09:55:47.064Z,47040.00
2018-06-09T09:56:46.985Z,45728.00
2018-06-09T09:57:46.908Z,45632.00
2018-06-09T09:58:46.830Z,45536.00
2018-06-09T09:59:46.750Z,45664.00
2018-06-09T10:00:46.673Z,45536.00
2018-06-09T10:01:46.595Z,44640.00
2018-06-09T10:02:46.515Z,44448.00
2018-06-09T10:03:46.439Z,44160.00
2018-06-09T10:04:46.392Z,44032.00
2018-06-09T10:05:46.292Z,47168.00
2018-06-09T10:06:46.215Z,76928.00
2018-06-09T10:07:46.136Z,146784.00
2018-06-09T10:08:46.058Z,192160.00
2018-06-09T10:09:45.992Z,177600.00
2018-06-09T10:10:45.901Z,150976.00
2018-06-09T10:11:45.822Z,142272.00
2018-06-09T10:12:45.758Z,140032.00
2018-06-09T10:13:45.667Z,135360.00
2018-06-09T10:14:45.601Z,129088.00
2018-06-09T10:15:45.523Z,121888.00
2018-06-09T10:16:45.444Z,121664.00
2018-06-09T10:17:45.366Z,128512.00
2018-06-09T10:18:45.299Z,134400.00
2018-06-09T10:19:45.209Z,140768.00
2018-06-09T10:20:45.143Z,149152.00
2018-06-09T10:21:45.064Z,156032.00
2018-06-09T10:22:44.987Z,149696.00
2018-06-09T10:23:44.908Z,141408.00
2018-06-09T10:24:44.829Z,142464.00
2018-06-09T10:25:44.752Z,142624.00
2018-06-09T10:26:44.688Z,143936.00
2018-06-09T10:27:44.608Z,145344.00
2018-06-09T10:28:44.529Z,148960.00
2018-06-09T10:29:44.451Z,147872.00
2018-06-09T10:30:44.384Z,147616.00
2018-06-09T10:31:44.336Z,148960.00
2018-06-09T10:32:44.257Z,146496.00
2018-06-09T10:33:44.150Z,149056.00
2018-06-09T10:34:44.085Z,150400.00
2018-06-09T10:35:44.008Z,148032.00
2018-06-09T10:36:43.928Z,142080.00
2018-06-09T10:37:43.851Z,126400.00
2018-06-09T10:38:43.789Z,112832.00
2018-06-09T10:39:43.706Z,112928.00
2018-06-09T10:40:43.626Z,114496.00
2018-06-09T10:41:43.561Z,116224.00
2018-06-09T10:42:43.483Z,118976.00
2018-06-09T10:43:43.405Z,119904.00
2018-06-09T10:44:43.328Z,118528.00
2018-06-09T10:45:43.260Z,116160.00
2018-06-09T10:46:43.184Z,112480.00
2018-06-09T10:47:43.103Z,112544.00
2018-06-09T10:48:43.026Z,116384.00
2018-06-09T10:49:42.960Z,117376.00
2018-06-09T10:50:42.881Z,118080.00
2018-06-09T10:51:42.803Z,116416.00
2018-06-09T10:52:42.725Z,115232.00
2018-06-09T10:53:42.658Z,115360.00
2018-06-09T10:54:42.580Z,114784.00
2018-06-09T10:55:42.502Z,114656.00
2018-06-09T10:56:42.423Z,113344.00
2018-06-09T10:57:42.346Z,111072.00
2018-06-09T10:58:42.280Z,112192.00
2018-06-09T10:59:42.201Z,109504.00
2018-06-09T11:00:42.123Z,108512.00
2018-06-09T11:01:42.049Z,106976.00
2018-06-09T11:02:41.978Z,109632.00
2018-06-09T11:03:41.903Z,109600.00
2018-06-09T11:04:41.822Z,113056.00
2018-06-09T11:05:41.994Z,115008.00
2018-06-09T11:06:41.679Z,114112.00
2018-06-09T11:07:41.600Z,114624.00
2018-06-09T11:08:41.524Z,112320.00
2018-06-09T11:09:41.444Z,111072.00
2018-06-09T11:10:41.379Z,109664.00
2018-06-09T11:11:41.301Z,106912.00
2018-06-09T11:12:41.222Z,108352.00
2018-06-09T11:13:41.142Z,111904.00
2018-06-09T11:14:41.066Z,112480.00
2018-06-09T11:15:40.999Z,113984.00
2018-06-09T11:16:40.921Z,113376.00
2018-06-09T11:17:40.842Z,114912.00
2018-06-09T11:18:40.764Z,119744.00
2018-06-09T11:19:40.697Z,122944.00
2018-06-09T11:20:40.870Z,122368.00
2018-06-09T11:21:40.541Z,122048.00
2018-06-09T11:22:40.466Z,118816.00
2018-06-09T11:23:40.398Z,116544.00
2018-06-09T11:24:40.319Z,112416.00
2018-06-09T11:25:40.240Z,110880.00
2018-06-09T11:26:40.163Z,110944.00
2018-06-09T11:27:40.096Z,108384.00
2018-06-09T11:28:40.031Z,104832.00
2018-06-09T11:29:39.940Z,101408.00
2018-06-09T11:30:39.861Z,102656.00
2018-06-09T11:31:39.784Z,103008.00
2018-06-09T11:32:39.717Z,103424.00
2018-06-09T11:33:39.639Z,104768.00
2018-06-09T11:34:39.561Z,104256.00
2018-06-09T11:35:39.483Z,103424.00
2018-06-09T11:36:39.430Z,100672.00
2018-06-09T11:37:39.338Z,99872.00
2018-06-09T11:38:39.260Z,99744.00
2018-06-09T11:39:39.183Z,98688.00
2018-06-09T11:40:39.103Z,99520.00
2018-06-09T11:41:39.026Z,98624.00
2018-06-09T11:42:38.962Z,99296.00
2018-06-09T11:43:38.881Z,98336.00
2018-06-09T11:44:38.803Z,97984.00
2018-06-09T11:45:38.724Z,100096.00
2018-06-09T11:46:38.646Z,99456.00
2018-06-09T11:47:38.568Z,97728.00
2018-06-09T11:48:38.501Z,94816.00
2018-06-09T11:49:38.424Z,97344.00
2018-06-09T11:50:38.344Z,99552.00
2018-06-09T11:51:38.271Z,100416.00
2018-06-09T11:52:38.189Z,99328.00
2018-06-09T11:53:38.123Z,96832.00
2018-06-09T11:54:38.044Z,97056.00
2018-06-09T11:55:37.969Z,97504.00
2018-06-09T11:56:37.890Z,99168.00
2018-06-09T11:57:37.810Z,101376.00
2018-06-09T11:58:37.772Z,98784.00
2018-06-09T11:59:37.666Z,96096.00
2018-06-09T12:00:37.587Z,100928.00
2018-06-09T12:01:37.508Z,100032.00
2018-06-09T12:02:37.429Z,100352.00
2018-06-09T12:03:37.364Z,100768.00
2018-06-09T12:04:37.274Z,102176.00
2018-06-09T12:05:37.216Z,101760.00